Current Conditions
Mostly Cloudy
Conditions



Pressure
30.1 (inHG) - 1019.3 (mb)
Visibility

10.0 (mimiles) - 16.1 (km)
   Temperature
81  °F
27°C
75  °F
Dewpoint
84  %
 Humidity
   Wind Speed
5  mph
4  kts
8  km/h
2.2  m/s
   Wind Direction
 360°
Due North
   Airport Data
KDWH
Location David Wayne Hooks Memorial Airport 4.4 mi (7.08 km)
Metar :KDWH 241353Z 36004KT 10SM BKN008 BKN017 OVC110 27/24 A3010 RMK AO2 SLP190 T02670239
Wed 24th July 08:53 am
   Raw Metar Info
Raw METAR is the most common format in the world for the transmission of observational weather data. It is highly standardized through the International Civil Aviation Organization (ICAO), which allows it to be understood throughout most of the world.
   API Info
Data Provided by
https://www.checkwx.com/weather/KDWH
   © Info
CSS/SVG/PHP scripts were developed by weather34.com for use in the weather34 template © 2015-2024

Guide Info provided by Metar-Wikipedia